Time;durP1;ratioP1;P1;durP2;ratioP2;P2;SDS_P1;SDS_P2;PMS_P1;PMS_P2;Temp;Humidity;BMP_temperature;BMP_pressure;BME280_temperature;BME280_humidity;BME280_pressure;Samples;Min_cycle;Max_cycle;Signal;HPM_P1;HPM_P2
2023/09/24 00:01:16;;;;;;;1.73;0.70;;;;;15.70;97071.00;;;;5100124;28;20581;-67
2023/09/24 00:04:07;;;;;;;0.80;0.57;;;;;15.50;97054.00;;;;5106997;27;20681;-67
2023/09/24 00:06:57;;;;;;;1.27;0.70;;;;;15.70;97054.00;;;;5102162;28;20203;-67
2023/09/24 00:09:46;;;;;;;1.70;1.03;;;;;15.50;97052.00;;;;5101547;28;20245;-67
2023/09/24 00:12:35;;;;;;;1.00;0.70;;;;;15.70;97047.00;;;;5102573;28;20698;-67
2023/09/24 00:15:24;;;;;;;0.97;0.63;;;;;15.70;97053.00;;;;5103660;28;20218;-67
2023/09/24 00:18:13;;;;;;;1.07;0.70;;;;;15.70;97055.00;;;;5104800;28;20205;-67
2023/09/24 00:21:04;;;;;;;0.97;0.87;;;;;15.70;97055.00;;;;5112413;27;20203;-67
2023/09/24 00:23:53;;;;;;;1.40;1.00;;;;;15.70;97056.00;;;;5109641;28;20206;-67
2023/09/24 00:26:42;;;;;;;1.23;0.80;;;;;15.60;97047.00;;;;5108892;28;20194;-67
2023/09/24 00:29:31;;;;;;;0.90;0.87;;;;;15.60;97045.00;;;;5104471;28;20724;-67
2023/09/24 00:32:20;;;;;;;1.70;1.03;;;;;15.70;97045.00;;;;5104954;28;20583;-67
2023/09/24 00:35:10;;;;;;;2.30;0.70;;;;;15.60;97053.00;;;;5108413;27;20699;-67
2023/09/24 00:38:00;;;;;;;0.67;0.50;;;;;15.70;97049.00;;;;5105166;28;20210;-67
2023/09/24 00:40:49;;;;;;;0.60;0.60;;;;;15.70;97049.00;;;;5108940;28;20213;-67
2023/09/24 00:43:38;;;;;;;2.63;0.87;;;;;15.80;97040.00;;;;5104065;28;20198;-67
2023/09/24 00:46:29;;;;;;;1.03;0.73;;;;;15.70;97045.00;;;;5105328;28;20210;-67
2023/09/24 00:49:18;;;;;;;0.80;0.80;;;;;15.70;97050.00;;;;5104128;27;20851;-67
2023/09/24 00:52:07;;;;;;;1.87;0.80;;;;;15.70;97051.00;;;;5104362;28;20210;-67
2023/09/24 00:54:58;;;;;;;1.10;0.63;;;;;15.60;97052.00;;;;5110583;28;20194;-66
2023/09/24 00:57:49;;;;;;;4.60;1.40;;;;;15.60;97045.00;;;;5123419;27;20193;-67
2023/09/24 01:00:38;;;;;;;2.33;0.50;;;;;16.00;97054.00;;;;5103525;28;20206;-67
2023/09/24 01:03:27;;;;;;;1.13;0.50;;;;;15.90;97064.00;;;;5107076;28;20229;-67
2023/09/24 01:06:18;;;;;;;1.00;0.77;;;;;15.80;97073.00;;;;5109376;28;20191;-67
2023/09/24 01:09:10;;;;;;;0.87;0.60;;;;;15.80;97082.00;;;;5121275;22;20235;-70
2023/09/24 01:12:04;;;;;;;0.70;0.50;;;;;15.70;97080.00;;;;5082963;28;20587;-71
2023/09/24 01:14:53;;;;;;;1.07;0.67;;;;;15.80;97079.00;;;;5082999;28;20203;-70
2023/09/24 01:17:42;;;;;;;4.10;1.13;;;;;16.00;97070.00;;;;5085023;28;20200;-70
2023/09/24 01:20:32;;;;;;;2.47;0.80;;;;;16.10;97065.00;;;;5080946;28;20680;-70
2023/09/24 01:23:22;;;;;;;2.40;0.70;;;;;16.00;97067.00;;;;5064379;28;20543;-71
2023/09/24 01:26:12;;;;;;;0.87;0.73;;;;;16.00;97059.00;;;;5069257;28;20672;-71
2023/09/24 01:29:02;;;;;;;1.03;0.93;;;;;16.20;97062.00;;;;5069675;28;20228;-70
2023/09/24 01:31:52;;;;;;;0.67;0.57;;;;;16.30;97059.00;;;;5069720;28;20207;-70
2023/09/24 01:34:41;;;;;;;1.63;0.93;;;;;16.30;97054.00;;;;5060224;28;20201;-70
2023/09/24 01:37:33;;;;;;;0.60;0.60;;;;;16.20;97043.00;;;;5076921;28;20199;-70
2023/09/24 01:40:25;;;;;;;1.47;1.00;;;;;16.30;97044.00;;;;5070756;28;20633;-72
2023/09/24 01:43:14;;;;;;;0.63;0.60;;;;;16.40;97055.00;;;;5063195;28;20196;-70
2023/09/24 01:46:05;;;;;;;1.40;0.60;;;;;16.30;97045.00;;;;5069133;28;20574;-70
2023/09/24 01:48:54;;;;;;;1.23;0.97;;;;;16.40;97055.00;;;;5070163;28;20606;-70
2023/09/24 01:51:46;;;;;;;0.97;0.80;;;;;16.40;97056.00;;;;5069950;28;20589;-70
2023/09/24 01:54:35;;;;;;;4.60;0.70;;;;;16.40;97058.00;;;;5065375;28;20260;-72
2023/09/24 01:57:25;;;;;;;0.93;0.50;;;;;16.40;97063.00;;;;5064804;28;20684;-72
2023/09/24 02:00:23;;;;;;;1.07;0.87;;;;;16.40;97057.00;;;;5071724;28;20219;-72
2023/09/24 02:03:12;;;;;;;2.93;0.50;;;;;16.30;97055.00;;;;5060563;28;20700;-70
2023/09/24 02:06:02;;;;;;;0.80;0.67;;;;;16.30;97057.00;;;;5061961;28;20590;-71
2023/09/24 02:08:51;;;;;;;2.07;0.70;;;;;16.30;97054.00;;;;5068479;28;20307;-72
2023/09/24 02:11:40;;;;;;;0.80;0.80;;;;;16.10;97049.00;;;;5068374;28;20745;-70
2023/09/24 02:14:31;;;;;;;1.43;0.77;;;;;16.10;97042.00;;;;5062494;28;20200;-72
2023/09/24 02:17:21;;;;;;;1.23;0.80;;;;;16.20;97044.00;;;;5069346;28;20204;-71
2023/09/24 02:20:22;;;;;;;3.37;0.90;;;;;16.20;97038.00;;;;5062374;28;20220;-70
2023/09/24 02:23:11;;;;;;;1.60;0.70;;;;;16.10;97034.00;;;;5067298;28;20207;-72
2023/09/24 02:26:00;;;;;;;2.30;0.77;;;;;15.80;97008.00;;;;5068450;28;20564;-70
2023/09/24 02:28:49;;;;;;;1.23;0.73;;;;;15.80;97030.00;;;;5069302;28;20926;-70
2023/09/24 02:31:40;;;;;;;1.00;0.90;;;;;16.00;97032.00;;;;5065755;28;20558;-70
2023/09/24 02:34:29;;;;;;;0.50;0.50;;;;;16.00;97026.00;;;;5060948;28;20200;-70
2023/09/24 02:37:18;;;;;;;0.87;0.60;;;;;16.10;97033.00;;;;5063890;28;20586;-70
2023/09/24 02:40:15;;;;;;;1.10;0.40;;;;;16.10;97011.00;;;;5067548;28;20228;-70
2023/09/24 02:43:04;;;;;;;1.90;0.70;;;;;16.10;97009.00;;;;5072777;28;20219;-70
2023/09/24 02:45:56;;;;;;;5.70;0.90;;;;;15.90;97006.00;;;;5060664;28;20274;-70
2023/09/24 02:48:46;;;;;;;1.07;0.60;;;;;16.30;97005.00;;;;5072652;28;20216;-70
2023/09/24 02:51:35;;;;;;;1.40;1.10;;;;;16.60;96993.00;;;;5067749;28;20212;-69
2023/09/24 02:54:24;;;;;;;2.50;0.90;;;;;16.70;97016.00;;;;5064980;28;20207;-69
2023/09/24 02:57:14;;;;;;;1.00;0.90;;;;;16.60;96993.00;;;;5065073;28;20480;-69
2023/09/24 03:00:10;;;;;;;0.50;0.50;;;;;16.80;97015.00;;;;5062569;28;20240;-69
2023/09/24 03:03:00;;;;;;;0.60;0.40;;;;;16.80;96998.00;;;;5074605;28;20210;-70
2023/09/24 03:05:50;;;;;;;0.87;0.67;;;;;16.60;97019.00;;;;5067225;28;20208;-69
2023/09/24 03:08:39;;;;;;;2.53;0.60;;;;;17.00;97026.00;;;;5069109;28;20231;-70
2023/09/24 03:11:28;;;;;;;1.23;0.70;;;;;17.10;97046.00;;;;5059484;28;20215;-71
2023/09/24 03:14:17;;;;;;;1.37;0.80;;;;;17.20;97018.00;;;;5061690;28;20652;-71
2023/09/24 03:17:06;;;;;;;1.57;0.77;;;;;17.10;97017.00;;;;5060571;28;20200;-69
2023/09/24 03:19:56;;;;;;;0.80;0.57;;;;;17.30;97020.00;;;;5074555;28;20230;-70
2023/09/24 03:22:48;;;;;;;1.20;1.10;;;;;17.30;97013.00;;;;5066777;28;20215;-69
2023/09/24 03:25:39;;;;;;;0.93;0.60;;;;;17.10;97008.00;;;;5058553;28;20200;-70
2023/09/24 03:28:28;;;;;;;2.73;0.87;;;;;17.20;97025.00;;;;5062402;28;20824;-71
2023/09/24 03:31:18;;;;;;;1.53;0.70;;;;;17.00;97025.00;;;;5061566;28;20223;-70
2023/09/24 03:34:06;;;;;;;1.40;0.70;;;;;17.30;97029.00;;;;5067411;28;20223;-70
2023/09/24 03:36:56;;;;;;;1.20;0.70;;;;;17.40;97037.00;;;;5061081;28;20209;-70
2023/09/24 03:39:46;;;;;;;1.07;0.80;;;;;17.30;97033.00;;;;5066499;28;20230;-71
2023/09/24 03:42:36;;;;;;;3.73;0.90;;;;;17.40;97043.00;;;;5068005;28;20206;-70
2023/09/24 03:45:25;;;;;;;2.77;1.70;;;;;16.90;97042.00;;;;5066611;28;20211;-71
2023/09/24 03:48:15;;;;;;;1.80;1.23;;;;;16.90;97043.00;;;;5067136;28;20284;-72
2023/09/24 03:51:04;;;;;;;0.73;0.60;;;;;16.60;97057.00;;;;5069089;28;20216;-69
2023/09/24 03:53:53;;;;;;;1.63;0.90;;;;;17.20;97056.00;;;;5066749;28;20200;-68
2023/09/24 03:56:45;;;;;;;1.33;0.40;;;;;17.40;97042.00;;;;5058589;28;20200;-69
2023/09/24 03:59:37;;;;;;;0.90;0.50;;;;;17.10;97053.00;;;;5063681;28;20215;-69
2023/09/24 04:02:27;;;;;;;1.53;1.33;;;;;17.30;97061.00;;;;5063624;28;20196;-69
2023/09/24 04:05:17;;;;;;;0.53;0.53;;;;;17.40;97055.00;;;;5065793;28;20206;-69
2023/09/24 04:08:07;;;;;;;2.53;0.73;;;;;17.40;97056.00;;;;5065021;28;20577;-70
2023/09/24 04:10:56;;;;;;;1.57;0.70;;;;;17.60;97054.00;;;;5067062;28;20224;-70
2023/09/24 04:13:46;;;;;;;1.70;0.60;;;;;17.40;97042.00;;;;5064750;28;20579;-70
2023/09/24 04:16:35;;;;;;;1.17;0.80;;;;;17.40;97054.00;;;;5067950;28;20203;-73
2023/09/24 04:19:24;;;;;;;0.80;0.53;;;;;16.90;97050.00;;;;5067656;28;20230;-70
2023/09/24 04:22:15;;;;;;;0.90;0.70;;;;;17.40;97056.00;;;;5066788;28;20214;-71
2023/09/24 04:25:05;;;;;;;1.60;0.67;;;;;17.40;97071.00;;;;5067482;28;20207;-69
2023/09/24 04:27:54;;;;;;;1.70;0.60;;;;;17.70;97077.00;;;;5068479;28;20227;-71
2023/09/24 04:30:45;;;;;;;2.33;0.67;;;;;17.60;97073.00;;;;5062289;28;20223;-70
2023/09/24 04:33:34;;;;;;;2.27;0.70;;;;;17.50;97070.00;;;;5064126;28;20191;-69
2023/09/24 04:36:23;;;;;;;0.63;0.53;;;;;17.70;97061.00;;;;5062649;28;20230;-71
2023/09/24 04:39:12;;;;;;;1.17;0.50;;;;;17.70;97087.00;;;;5066538;28;20235;-71
2023/09/24 04:42:01;;;;;;;0.80;0.50;;;;;17.70;97077.00;;;;5062821;28;20215;-70
2023/09/24 04:44:50;;;;;;;3.13;0.87;;;;;17.60;97078.00;;;;5062835;28;20614;-70
2023/09/24 04:47:41;;;;;;;2.53;0.90;;;;;17.50;97079.00;;;;5065241;28;20585;-70
2023/09/24 04:50:30;;;;;;;1.23;0.70;;;;;17.40;97076.00;;;;5064581;28;20231;-70
2023/09/24 04:53:19;;;;;;;2.80;0.60;;;;;17.30;97087.00;;;;5067009;28;20201;-69
2023/09/24 04:56:09;;;;;;;1.57;0.83;;;;;17.50;97094.00;;;;5057437;28;20207;-69
2023/09/24 04:58:58;;;;;;;0.73;0.50;;;;;17.60;97094.00;;;;5060555;28;20216;-70
2023/09/24 05:01:47;;;;;;;1.57;1.17;;;;;17.70;97109.00;;;;5065080;28;20231;-70
2023/09/24 05:04:37;;;;;;;4.23;0.60;;;;;17.20;97121.00;;;;5060190;28;20204;-71
2023/09/24 05:07:26;;;;;;;1.03;0.80;;;;;17.20;97115.00;;;;5066941;28;20212;-68
2023/09/24 05:10:15;;;;;;;0.83;0.50;;;;;17.70;97126.00;;;;5069654;28;20244;-70
2023/09/24 05:13:05;;;;;;;0.93;0.50;;;;;17.60;97116.00;;;;5069568;28;20204;-70
2023/09/24 05:15:59;;;;;;;0.73;0.70;;;;;17.60;97125.00;;;;5069352;28;20676;-70
2023/09/24 05:18:48;;;;;;;0.67;0.57;;;;;17.50;97127.00;;;;5068441;28;20220;-70
2023/09/24 05:21:39;;;;;;;1.30;0.70;;;;;17.50;97140.00;;;;5069126;28;20197;-70
2023/09/24 05:24:28;;;;;;;0.77;0.60;;;;;17.50;97142.00;;;;5066374;28;20208;-70
2023/09/24 05:27:18;;;;;;;1.27;0.80;;;;;17.60;97143.00;;;;5058291;28;20196;-70
2023/09/24 05:30:08;;;;;;;1.10;0.53;;;;;17.50;97153.00;;;;5069825;28;20607;-70
2023/09/24 05:32:57;;;;;;;4.53;0.50;;;;;17.30;97144.00;;;;5068934;28;20695;-70
2023/09/24 05:35:51;;;;;;;3.03;0.43;;;;;17.50;97157.00;;;;5070091;28;20207;-70
2023/09/24 05:38:42;;;;;;;1.27;0.83;;;;;17.50;97156.00;;;;5067072;28;20216;-71
2023/09/24 05:41:31;;;;;;;0.70;0.67;;;;;17.40;97162.00;;;;5065433;28;20219;-69
2023/09/24 05:44:20;;;;;;;2.33;0.77;;;;;17.70;97172.00;;;;5067125;28;20196;-69
2023/09/24 05:47:10;;;;;;;0.70;0.70;;;;;17.60;97164.00;;;;5068652;28;20204;-70
2023/09/24 05:49:59;;;;;;;1.33;0.60;;;;;17.20;97161.00;;;;5070687;28;20228;-69
2023/09/24 05:52:49;;;;;;;0.70;0.60;;;;;17.70;97172.00;;;;5068122;28;20203;-69
2023/09/24 05:55:39;;;;;;;0.63;0.47;;;;;17.30;97167.00;;;;5063266;28;20580;-70
2023/09/24 05:58:28;;;;;;;3.00;1.03;;;;;17.60;97177.00;;;;5065350;28;20196;-69
2023/09/24 06:01:17;;;;;;;0.73;0.63;;;;;17.50;97170.00;;;;5066270;28;20197;-70
2023/09/24 06:04:06;;;;;;;1.33;0.67;;;;;17.20;97169.00;;;;5074114;28;20298;-69
2023/09/24 06:06:55;;;;;;;1.97;0.67;;;;;17.40;97171.00;;;;5063318;28;20201;-70
2023/09/24 06:09:44;;;;;;;1.23;1.03;;;;;17.80;97184.00;;;;5061174;28;20236;-70
2023/09/24 06:12:35;;;;;;;1.30;0.80;;;;;17.90;97182.00;;;;5063861;28;20227;-69
2023/09/24 06:15:24;;;;;;;1.23;0.50;;;;;18.00;97194.00;;;;5063065;28;20208;-70
2023/09/24 06:18:13;;;;;;;0.60;0.57;;;;;18.00;97198.00;;;;5065196;28;20270;-70
2023/09/24 06:21:04;;;;;;;1.07;0.73;;;;;17.70;97197.00;;;;5063780;28;20204;-70
2023/09/24 06:23:53;;;;;;;0.80;0.70;;;;;17.70;97197.00;;;;5065970;28;20200;-70
2023/09/24 06:26:42;;;;;;;2.60;0.70;;;;;17.70;97204.00;;;;5066718;28;20204;-70
2023/09/24 06:29:35;;;;;;;0.87;0.70;;;;;17.70;97198.00;;;;5066992;28;20223;-71
2023/09/24 06:32:26;;;;;;;4.40;0.63;;;;;17.60;97205.00;;;;5063184;28;20242;-70
2023/09/24 06:35:15;;;;;;;1.50;0.60;;;;;17.70;97209.00;;;;5060605;28;20218;-70
2023/09/24 06:38:04;;;;;;;2.97;0.80;;;;;17.70;97210.00;;;;5065140;28;20710;-70
2023/09/24 06:41:00;;;;;;;1.47;0.80;;;;;17.80;97218.00;;;;5062115;28;20203;-71
2023/09/24 06:43:49;;;;;;;0.80;0.60;;;;;17.80;97230.00;;;;5061719;28;20208;-71
2023/09/24 06:46:41;;;;;;;2.40;2.20;;;;;17.60;97223.00;;;;5065959;28;20200;-70
2023/09/24 06:49:30;;;;;;;1.43;0.50;;;;;18.00;97222.00;;;;5064192;28;20224;-70
2023/09/24 06:52:19;;;;;;;1.10;0.70;;;;;17.90;97237.00;;;;5062662;28;20227;-70
2023/09/24 06:55:10;;;;;;;1.87;0.83;;;;;17.70;97230.00;;;;5061017;28;20203;-69
2023/09/24 06:57:58;;;;;;;4.23;1.13;;;;;17.90;97233.00;;;;5063624;28;20208;-69
2023/09/24 07:00:47;;;;;;;3.07;1.00;;;;;17.90;97233.00;;;;5059403;28;20235;-70
2023/09/24 07:03:38;;;;;;;2.00;0.87;;;;;17.80;97245.00;;;;5067333;28;20258;-71
2023/09/24 07:06:27;;;;;;;1.07;0.70;;;;;18.00;97237.00;;;;5067240;28;20716;-70
2023/09/24 07:09:16;;;;;;;1.40;0.90;;;;;18.00;97247.00;;;;5084386;22;20245;-70
2023/09/24 07:12:05;;;;;;;1.20;0.90;;;;;17.80;97249.00;;;;5098093;28;20221;-70
2023/09/24 07:14:54;;;;;;;2.13;0.70;;;;;18.10;97242.00;;;;5101320;28;20210;-70
2023/09/24 07:17:43;;;;;;;5.73;1.67;;;;;18.10;97239.00;;;;5097662;28;20203;-70
2023/09/24 07:20:34;;;;;;;3.00;0.70;;;;;18.00;97248.00;;;;5094825;28;20223;-71
2023/09/24 07:23:23;;;;;;;2.33;1.00;;;;;18.10;97253.00;;;;5091905;28;20195;-71
2023/09/24 07:26:12;;;;;;;1.00;0.80;;;;;18.00;97245.00;;;;5083251;28;20680;-71
2023/09/24 07:29:01;;;;;;;5.20;1.40;;;;;17.80;97242.00;;;;5076699;28;20242;-71
2023/09/24 07:31:51;;;;;;;0.97;0.77;;;;;18.00;97241.00;;;;5078395;28;20215;-70
2023/09/24 07:34:40;;;;;;;0.97;0.73;;;;;18.10;97242.00;;;;5084717;28;20206;-70
2023/09/24 07:37:30;;;;;;;1.33;0.67;;;;;17.90;97256.00;;;;5087753;28;20214;-72
2023/09/24 07:40:20;;;;;;;1.50;0.60;;;;;17.60;97247.00;;;;5090776;28;20223;-72
2023/09/24 07:43:09;;;;;;;0.57;0.43;;;;;18.00;97247.00;;;;5087841;28;20187;-71
2023/09/24 07:45:58;;;;;;;4.33;0.90;;;;;17.90;97256.00;;;;5084930;28;20203;-70
2023/09/24 07:48:48;;;;;;;0.80;0.60;;;;;18.40;97257.00;;;;5087098;28;20203;-71
2023/09/24 07:51:37;;;;;;;3.43;0.80;;;;;18.60;97264.00;;;;5084878;28;20263;-70
2023/09/24 07:54:28;;;;;;;1.27;0.90;;;;;18.50;97266.00;;;;5080272;28;20207;-71
2023/09/24 07:57:18;;;;;;;0.73;0.53;;;;;18.20;97265.00;;;;5075770;28;20702;-71
2023/09/24 08:00:09;;;;;;;4.13;1.27;;;;;18.30;97266.00;;;;5081002;28;20226;-71
2023/09/24 08:02:58;;;;;;;1.93;0.93;;;;;18.30;97265.00;;;;5081440;28;20195;-71
2023/09/24 08:05:47;;;;;;;1.33;0.80;;;;;18.60;97279.00;;;;5076001;28;20203;-70
2023/09/24 08:08:36;;;;;;;1.17;0.83;;;;;18.60;97273.00;;;;5080961;28;20199;-71
2023/09/24 08:11:38;;;;;;;1.40;0.63;;;;;18.40;97283.00;;;;5082529;28;20219;-72
2023/09/24 08:14:27;;;;;;;1.40;0.90;;;;;18.50;97276.00;;;;5083696;28;20207;-71
2023/09/24 08:17:16;;;;;;;3.10;1.03;;;;;18.80;97277.00;;;;5079656;28;20206;-72
2023/09/24 08:20:07;;;;;;;3.63;0.60;;;;;18.90;97279.00;;;;5082423;28;20230;-71
2023/09/24 08:22:56;;;;;;;1.03;0.70;;;;;18.50;97288.00;;;;5074165;28;20187;-71
2023/09/24 08:25:45;;;;;;;0.83;0.40;;;;;17.60;97289.00;;;;5078930;28;20699;-72
2023/09/24 08:28:35;;;;;;;2.57;0.80;;;;;18.10;97287.00;;;;5082383;28;20200;-72
2023/09/24 08:31:25;;;;;;;2.20;0.90;;;;;18.50;97297.00;;;;5090603;28;20207;-72
2023/09/24 08:34:15;;;;;;;1.10;0.90;;;;;18.70;97297.00;;;;5088879;28;20200;-71
2023/09/24 08:37:04;;;;;;;0.90;0.70;;;;;18.50;97307.00;;;;5081118;28;20212;-71
2023/09/24 08:39:53;;;;;;;1.50;0.70;;;;;18.50;97303.00;;;;5084126;28;20219;-70
2023/09/24 08:42:43;;;;;;;0.83;0.83;;;;;18.60;97303.00;;;;5086128;28;20210;-70
2023/09/24 08:45:34;;;;;;;4.40;1.03;;;;;19.00;97311.00;;;;5080334;28;20203;-70
2023/09/24 08:48:23;;;;;;;1.23;0.60;;;;;18.80;97305.00;;;;5087657;28;20575;-70
2023/09/24 08:51:13;;;;;;;1.33;0.50;;;;;18.90;97316.00;;;;5093202;28;20283;-70
2023/09/24 08:54:02;;;;;;;0.87;0.80;;;;;18.40;97307.00;;;;5094085;28;20210;-73
2023/09/24 08:56:51;;;;;;;0.90;0.70;;;;;18.70;97326.00;;;;5093042;28;20195;-72
2023/09/24 08:59:40;;;;;;;1.97;0.70;;;;;18.90;97324.00;;;;5098216;28;20224;-72
2023/09/24 09:02:31;;;;;;;1.17;1.00;;;;;18.90;97330.00;;;;5082700;28;20191;-72
2023/09/24 09:05:23;;;;;;;2.03;0.80;;;;;18.50;97320.00;;;;5084746;28;20230;-73
2023/09/24 09:08:12;;;;;;;0.70;0.70;;;;;18.70;97325.00;;;;5092012;28;20199;-73
2023/09/24 09:11:02;;;;;;;1.43;0.60;;;;;18.80;97331.00;;;;5094040;28;20231;-72
2023/09/24 09:13:52;;;;;;;0.87;0.80;;;;;18.60;97336.00;;;;5095470;28;20223;-72
2023/09/24 09:16:57;;;;;;;1.33;0.97;;;;;18.70;97330.00;;;;5092578;28;20205;-71
2023/09/24 09:19:52;;;;;;;1.40;0.70;;;;;18.40;97333.00;;;;5086076;28;20230;-73
2023/09/24 09:22:47;;;;;;;1.50;0.80;;;;;18.90;97335.00;;;;5086987;28;20200;-73
2023/09/24 09:25:50;;;;;;;1.27;0.97;;;;;19.00;97346.00;;;;5086739;28;20606;-74
2023/09/24 09:28:39;;;;;;;0.63;0.63;;;;;18.60;97338.00;;;;5083064;28;20203;-72
2023/09/24 09:31:28;;;;;;;0.70;0.50;;;;;18.20;97350.00;;;;5081102;28;20695;-70
2023/09/24 09:34:18;;;;;;;1.10;1.00;;;;;18.40;97353.00;;;;5084872;28;20200;-71
2023/09/24 09:37:20;;;;;;;1.17;0.73;;;;;18.70;97349.00;;;;5088707;28;20206;-71
2023/09/24 09:40:10;;;;;;;0.80;0.70;;;;;18.70;97355.00;;;;5083993;28;20237;-72
2023/09/24 09:42:59;;;;;;;2.97;0.93;;;;;18.70;97339.00;;;;5085511;28;20206;-71
2023/09/24 09:45:49;;;;;;;1.90;0.80;;;;;18.90;97340.00;;;;5083228;28;20570;-71
2023/09/24 09:48:39;;;;;;;1.20;0.70;;;;;19.10;97360.00;;;;5085517;28;20215;-71
2023/09/24 09:51:29;;;;;;;2.83;0.93;;;;;18.40;97347.00;;;;5080675;28;20203;-71
2023/09/24 09:54:22;;;;;;;1.00;0.70;;;;;18.80;97358.00;;;;5081568;28;20304;-71
2023/09/24 09:57:12;;;;;;;1.57;1.00;;;;;18.10;97355.00;;;;5080932;28;20208;-70
2023/09/24 10:00:06;;;;;;;0.93;0.80;;;;;18.10;97356.00;;;;5083489;28;20223;-73
2023/09/24 10:02:56;;;;;;;1.57;1.03;;;;;18.60;97365.00;;;;5087996;28;20203;-70
2023/09/24 10:05:46;;;;;;;2.00;1.00;;;;;18.50;97376.00;;;;5088404;28;20195;-70
2023/09/24 10:08:39;;;;;;;1.43;1.00;;;;;18.20;97375.00;;;;5089447;28;20203;-69
2023/09/24 10:12:01;;;;;;;1.93;0.70;;;;;18.40;97374.00;;;;5089920;28;20196;-71
2023/09/24 10:14:55;;;;;;;3.13;0.97;;;;;18.10;97372.00;;;;5005408;28;20210;-69
2023/09/24 10:17:45;;;;;;;1.43;0.70;;;;;18.00;97368.00;;;;5083375;28;20254;-69
2023/09/24 10:21:04;;;;;;;1.17;0.70;;;;;18.00;97367.00;;;;5085475;28;20223;-70
2023/09/24 10:23:53;;;;;;;1.37;1.13;;;;;17.70;97379.00;;;;5083187;28;20564;-69
2023/09/24 10:26:50;;;;;;;1.37;1.00;;;;;17.70;97383.00;;;;5089258;28;20210;-70
2023/09/24 10:30:03;;;;;;;2.47;1.10;;;;;17.80;97381.00;;;;5089308;28;20222;-71
2023/09/24 10:32:52;;;;;;;1.43;0.80;;;;;17.80;97381.00;;;;5085805;28;20235;-70
2023/09/24 10:35:41;;;;;;;1.30;0.73;;;;;17.80;97386.00;;;;5084993;28;20703;-70
2023/09/24 10:38:31;;;;;;;7.30;1.03;;;;;17.70;97380.00;;;;5088337;28;20203;-70
2023/09/24 10:41:20;;;;;;;3.17;0.90;;;;;17.80;97367.00;;;;5093197;28;20210;-70
2023/09/24 10:44:25;;;;;;;0.87;0.87;;;;;17.60;97379.00;;;;5089613;28;20206;-69
2023/09/24 10:47:27;;;;;;;2.93;1.10;;;;;17.20;97368.00;;;;5081279;28;20191;-70
2023/09/24 10:50:17;;;;;;;1.87;1.37;;;;;17.50;97382.00;;;;5088776;28;20580;-70
2023/09/24 10:53:07;;;;;;;1.90;0.80;;;;;17.20;97375.00;;;;5085153;28;20228;-72
2023/09/24 10:55:56;;;;;;;1.77;1.10;;;;;17.30;97382.00;;;;5083826;28;20196;-72
2023/09/24 10:58:53;;;;;;;2.90;1.50;;;;;17.20;97373.00;;;;5072340;28;22269;-72
2023/09/24 11:01:42;;;;;;;1.40;1.03;;;;;17.30;97380.00;;;;5076603;28;20207;-73
2023/09/24 11:04:33;;;;;;;2.97;1.03;;;;;17.00;97378.00;;;;5080853;28;20688;-70
2023/09/24 11:07:22;;;;;;;1.93;1.20;;;;;16.90;97363.00;;;;5080971;28;20207;-72
2023/09/24 11:10:11;;;;;;;1.53;1.17;;;;;16.80;97391.00;;;;5087233;28;20230;-71
2023/09/24 11:13:02;;;;;;;0.70;0.60;;;;;16.90;97389.00;;;;5089927;28;20306;-71
2023/09/24 11:15:51;;;;;;;2.13;0.90;;;;;17.30;97388.00;;;;5092717;28;20198;-71
2023/09/24 11:18:48;;;;;;;2.13;1.30;;;;;17.10;97400.00;;;;5090491;28;20206;-71
2023/09/24 11:21:39;;;;;;;0.90;0.90;;;;;16.80;97393.00;;;;5082203;28;20207;-71
2023/09/24 11:24:28;;;;;;;1.23;0.97;;;;;17.20;97399.00;;;;5077955;28;20281;-71
2023/09/24 11:27:17;;;;;;;1.17;0.90;;;;;17.30;97396.00;;;;5078589;28;20195;-71
2023/09/24 11:30:07;;;;;;;2.20;1.20;;;;;17.00;97394.00;;;;5081300;28;20255;-71
2023/09/24 11:32:57;;;;;;;1.30;0.90;;;;;17.50;97395.00;;;;5081322;28;20618;-71
2023/09/24 11:35:46;;;;;;;2.87;1.30;;;;;17.60;97411.00;;;;5080410;28;20304;-71
2023/09/24 11:38:38;;;;;;;1.47;0.87;;;;;17.70;97421.00;;;;5084852;28;20557;-71
2023/09/24 11:41:27;;;;;;;4.33;1.27;;;;;17.40;97413.00;;;;5080500;28;20588;-72
2023/09/24 11:44:17;;;;;;;1.53;1.40;;;;;17.40;97407.00;;;;5080510;28;20208;-72
2023/09/24 11:47:07;;;;;;;2.37;1.17;;;;;16.70;97415.00;;;;5075513;28;20208;-72
2023/09/24 11:49:56;;;;;;;2.90;1.63;;;;;16.90;97424.00;;;;5080942;28;20223;-71
2023/09/24 11:52:45;;;;;;;2.13;1.80;;;;;17.30;97437.00;;;;5084910;28;20206;-72
2023/09/24 11:55:36;;;;;;;2.77;1.33;;;;;17.40;97429.00;;;;5078247;28;20199;-72
2023/09/24 11:58:26;;;;;;;1.43;1.30;;;;;17.70;97434.00;;;;5077856;28;20203;-72
2023/09/24 12:01:15;;;;;;;2.13;1.50;;;;;17.80;97434.00;;;;5085833;28;20204;-72
2023/09/24 12:04:04;;;;;;;1.20;1.10;;;;;17.90;97444.00;;;;5085266;28;20802;-72
2023/09/24 12:06:53;;;;;;;3.57;1.07;;;;;18.00;97437.00;;;;5087565;28;21124;-72
2023/09/24 12:09:42;;;;;;;1.30;1.20;;;;;18.10;97437.00;;;;5082500;28;20237;-72
2023/09/24 12:12:33;;;;;;;1.07;0.90;;;;;17.40;97437.00;;;;5087901;28;20206;-72
2023/09/24 12:15:23;;;;;;;1.97;1.60;;;;;17.50;97438.00;;;;5089413;28;20239;-72
2023/09/24 12:18:12;;;;;;;3.03;0.87;;;;;17.70;97438.00;;;;5091941;28;20223;-72
2023/09/24 12:21:02;;;;;;;2.43;1.03;;;;;17.80;97456.00;;;;5090120;28;20215;-72
2023/09/24 12:23:51;;;;;;;1.10;1.00;;;;;17.80;97452.00;;;;5091574;28;20194;-71
2023/09/24 12:26:40;;;;;;;2.73;1.60;;;;;17.40;97439.00;;;;5091720;28;20584;-73
2023/09/24 12:29:31;;;;;;;1.60;1.00;;;;;16.90;97446.00;;;;5078505;28;20220;-71
2023/09/24 12:32:20;;;;;;;2.03;1.20;;;;;17.00;97451.00;;;;5089327;28;20211;-71
2023/09/24 12:35:12;;;;;;;1.70;0.90;;;;;16.70;97455.00;;;;5077502;28;20219;-70
2023/09/24 12:38:01;;;;;;;3.47;1.87;;;;;16.70;97452.00;;;;5077582;28;20207;-70
2023/09/24 12:40:50;;;;;;;1.73;1.07;;;;;17.00;97453.00;;;;5083355;28;20247;-70
2023/09/24 12:43:39;;;;;;;2.27;1.53;;;;;17.20;97455.00;;;;5082515;28;20208;-70
2023/09/24 12:46:29;;;;;;;0.93;0.87;;;;;17.20;97461.00;;;;5090559;28;20195;-71
2023/09/24 12:49:18;;;;;;;2.70;1.33;;;;;16.90;97454.00;;;;5084595;28;20234;-70
2023/09/24 12:52:09;;;;;;;1.67;1.53;;;;;16.70;97450.00;;;;5082941;28;20210;-70
2023/09/24 12:54:58;;;;;;;2.80;1.30;;;;;16.60;97457.00;;;;5092898;28;20223;-70
2023/09/24 12:57:47;;;;;;;1.00;0.80;;;;;16.40;97452.00;;;;5076698;28;20442;-72
2023/09/24 13:00:36;;;;;;;2.77;1.33;;;;;16.20;97450.00;;;;5083517;28;20227;-72
2023/09/24 13:03:27;;;;;;;1.87;1.00;;;;;16.70;97454.00;;;;5077044;28;20757;-72
2023/09/24 13:06:17;;;;;;;1.70;1.07;;;;;15.80;97443.00;;;;5077880;28;20199;-71
2023/09/24 13:09:09;;;;;;;1.30;1.20;;;;;15.70;97456.00;;;;5104544;22;20312;-65
2023/09/24 13:11:59;;;;;;;2.03;1.00;;;;;15.70;97451.00;;;;5076860;28;20233;-64
2023/09/24 13:14:48;;;;;;;3.43;0.70;;;;;16.20;97460.00;;;;5082805;28;20219;-66
2023/09/24 13:17:37;;;;;;;1.37;1.13;;;;;15.90;97447.00;;;;5076935;28;20551;-66
2023/09/24 13:20:27;;;;;;;1.80;1.27;;;;;15.90;97443.00;;;;5084028;28;20586;-66
2023/09/24 13:23:16;;;;;;;1.20;1.10;;;;;15.70;97454.00;;;;5077772;28;20203;-66
2023/09/24 13:26:05;;;;;;;1.13;0.90;;;;;15.30;97448.00;;;;5077525;28;20206;-65
2023/09/24 13:28:54;;;;;;;0.87;0.87;;;;;15.30;97445.00;;;;5086821;28;20691;-65
2023/09/24 13:31:45;;;;;;;2.80;1.10;;;;;15.40;97456.00;;;;5080252;28;20207;-66
2023/09/24 13:34:34;;;;;;;1.73;1.23;;;;;15.50;97452.00;;;;5082716;28;20621;-66
2023/09/24 13:37:24;;;;;;;1.40;1.07;;;;;15.40;97446.00;;;;5084767;28;20576;-65
2023/09/24 13:40:13;;;;;;;1.27;1.17;;;;;15.00;97426.00;;;;5083262;28;20231;-65
2023/09/24 13:43:10;;;;;;;1.30;0.80;;;;;14.90;97446.00;;;;5081830;28;20207;-66
2023/09/24 13:45:59;;;;;;;2.50;1.20;;;;;14.90;97444.00;;;;5084190;28;20206;-65
2023/09/24 13:48:50;;;;;;;1.73;1.03;;;;;14.60;97428.00;;;;5085185;28;20204;-65
2023/09/24 13:51:41;;;;;;;1.70;0.97;;;;;14.60;97430.00;;;;5083369;28;20679;-65
2023/09/24 13:54:33;;;;;;;1.73;1.03;;;;;14.60;97431.00;;;;5080843;28;20650;-66
2023/09/24 13:57:22;;;;;;;1.93;1.00;;;;;14.70;97426.00;;;;5078343;28;20216;-66
2023/09/24 14:00:13;;;;;;;1.53;1.23;;;;;15.00;97432.00;;;;5078435;28;20629;-66
2023/09/24 14:03:02;;;;;;;1.93;1.20;;;;;14.40;97433.00;;;;5086665;28;20241;-66
2023/09/24 14:05:57;;;;;;;0.97;0.67;;;;;14.60;97422.00;;;;5085580;28;20206;-66
2023/09/24 14:15:01;;;;;;;1.57;1.30;;;;;14.70;97406.00;;;;5086483;28;20252;-66
2023/09/24 14:17:50;;;;;;;2.57;2.37;;;;;14.50;97411.00;;;;5078850;28;20196;-66
2023/09/24 14:20:46;;;;;;;2.33;1.00;;;;;14.60;97401.00;;;;5078279;28;20230;-66